Terminal Aerodrome Forecast
Issued by NWS St Louis, MO

Home | Current Version | Previous Version | Text Only | Print | Product List | Glossary On
Versions: 1 2 3 4 5 6 7 8 9 10 11 12 13 14 15 16 17 18 19 20 21 22 23 24
933
FTUS43 KLSX 272323
TAFCOU
TAF
KCOU 272323Z 2800/2824 20008KT P6SM VCTS SCT060CB
     FM280100 24008KT P6SM SCT080
     FM281200 23008KT P6SM SCT060=

USA.gov is the U.S. government's official web portal to all federal, state and local government web resources and services.